createdAt,value
2023-07-23T00:00:12.627Z,16.70
2023-07-23T00:01:17.226Z,16.75
2023-07-23T00:02:18.878Z,16.65
2023-07-23T00:03:20.488Z,16.74
2023-07-23T00:04:22.127Z,16.63
2023-07-23T00:05:27.662Z,16.46
2023-07-23T00:06:29.271Z,16.52
2023-07-23T00:07:31.345Z,16.76
2023-07-23T00:08:33.011Z,16.48
2023-07-23T00:09:34.784Z,16.40
2023-07-23T00:10:36.386Z,16.20
2023-07-23T00:11:38.018Z,16.44
2023-07-23T00:12:39.734Z,16.15
2023-07-23T00:13:41.299Z,16.08
2023-07-23T00:14:42.893Z,16.15
2023-07-23T00:15:44.560Z,16.20
2023-07-23T00:16:46.477Z,16.04
2023-07-23T00:17:49.075Z,15.99
2023-07-23T00:18:50.803Z,16.23
2023-07-23T00:19:52.413Z,16.20
2023-07-23T00:20:54.025Z,16.13
2023-07-23T00:21:55.570Z,16.26
2023-07-23T00:22:57.142Z,16.24
2023-07-23T00:23:58.704Z,16.21
2023-07-23T00:25:00.418Z,16.04
2023-07-23T00:26:01.988Z,16.04
2023-07-23T00:27:03.931Z,16.15
2023-07-23T00:28:05.577Z,15.97
2023-07-23T00:29:07.251Z,15.91
2023-07-23T00:30:09.412Z,15.84
2023-07-23T00:31:11.211Z,15.97
2023-07-23T00:32:12.863Z,15.89
2023-07-23T00:33:14.550Z,16.05
2023-07-23T00:34:16.134Z,15.98
2023-07-23T00:35:21.375Z,16.02
2023-07-23T00:36:23.100Z,15.91
2023-07-23T00:37:24.852Z,15.95
2023-07-23T00:38:26.530Z,15.89
2023-07-23T00:39:29.998Z,16.01
2023-07-23T00:40:31.607Z,15.87
2023-07-23T00:41:33.361Z,15.87
2023-07-23T00:42:35.226Z,15.63
2023-07-23T00:43:36.807Z,15.81
2023-07-23T00:44:38.641Z,15.76
2023-07-23T00:45:40.532Z,15.76
2023-07-23T00:46:42.298Z,15.68
2023-07-23T00:47:44.344Z,15.68
2023-07-23T00:48:45.988Z,15.75
2023-07-23T00:49:47.623Z,15.70
2023-07-23T00:50:49.288Z,15.60
2023-07-23T00:51:51.767Z,15.62
2023-07-23T00:52:53.557Z,15.66
2023-07-23T00:53:55.135Z,15.74
2023-07-23T00:54:56.786Z,15.84
2023-07-23T00:56:00.034Z,15.78
2023-07-23T00:57:03.710Z,15.69
2023-07-23T00:58:05.379Z,15.77
2023-07-23T00:59:08.239Z,15.88
2023-07-23T01:00:16.115Z,15.89
2023-07-23T01:01:19.255Z,15.85
2023-07-23T01:02:20.811Z,16.17
2023-07-23T01:03:22.446Z,16.03
2023-07-23T01:04:24.699Z,16.06
2023-07-23T01:05:27.173Z,15.98
2023-07-23T01:06:28.643Z,15.77
2023-07-23T01:07:31.226Z,15.84
2023-07-23T01:08:35.952Z,16.08
2023-07-23T01:09:38.164Z,16.11
2023-07-23T01:10:40.563Z,15.76
2023-07-23T01:11:42.291Z,15.63
2023-07-23T01:12:44.152Z,15.76
2023-07-23T01:13:46.032Z,15.61
2023-07-23T01:14:47.702Z,15.65
2023-07-23T01:15:49.364Z,15.37
2023-07-23T01:16:51.067Z,15.48
2023-07-23T01:17:53.164Z,15.72
2023-07-23T01:18:55.251Z,15.70
2023-07-23T01:20:22.485Z,15.65
2023-07-23T01:21:24.195Z,15.87
2023-07-23T01:22:25.777Z,15.77
2023-07-23T01:23:27.349Z,15.41
2023-07-23T01:24:29.748Z,15.38
2023-07-23T01:25:31.481Z,15.48
2023-07-23T01:26:33.229Z,15.46
2023-07-23T01:27:34.852Z,15.41
2023-07-23T01:28:37.129Z,15.35
2023-07-23T01:29:38.750Z,15.45
2023-07-23T01:30:40.809Z,15.38
2023-07-23T01:31:42.402Z,15.46
2023-07-23T01:32:44.161Z,15.55
2023-07-23T01:33:46.289Z,15.56
2023-07-23T01:34:48.490Z,15.75
2023-07-23T01:35:55.816Z,15.69
2023-07-23T01:36:57.414Z,15.46
2023-07-23T01:37:59.588Z,15.39
2023-07-23T01:39:01.206Z,15.44
2023-07-23T01:40:03.678Z,15.45
2023-07-23T01:41:05.422Z,15.55
2023-07-23T01:42:12.727Z,15.44
2023-07-23T01:43:14.739Z,15.52
2023-07-23T01:44:16.421Z,15.49
2023-07-23T01:45:18.228Z,15.54
2023-07-23T01:46:19.794Z,15.86
2023-07-23T01:47:21.483Z,15.58
2023-07-23T01:48:23.857Z,15.60
2023-07-23T01:49:25.402Z,15.58
2023-07-23T01:50:27.062Z,15.48
2023-07-23T01:51:28.901Z,15.40
2023-07-23T01:52:30.730Z,15.32
2023-07-23T01:53:32.249Z,15.46
2023-07-23T01:54:33.905Z,15.47
2023-07-23T01:55:35.741Z,15.26
2023-07-23T01:56:37.299Z,15.40
2023-07-23T01:57:38.914Z,15.68
2023-07-23T01:58:40.522Z,15.64
2023-07-23T01:59:42.161Z,15.52
2023-07-23T02:00:43.841Z,15.62
2023-07-23T02:01:45.409Z,15.70
2023-07-23T02:02:47.077Z,15.66
2023-07-23T02:03:48.726Z,15.73
2023-07-23T02:04:50.441Z,15.48
2023-07-23T02:06:00.468Z,15.55
2023-07-23T02:07:02.448Z,15.59
2023-07-23T02:08:04.235Z,15.39
2023-07-23T02:09:05.805Z,15.41
2023-07-23T02:10:08.121Z,15.50
2023-07-23T02:11:09.749Z,15.80
2023-07-23T02:12:11.448Z,15.54
2023-07-23T02:13:13.040Z,15.67
2023-07-23T02:14:14.651Z,15.83
2023-07-23T02:15:16.583Z,15.65
2023-07-23T02:16:19.211Z,15.62
2023-07-23T02:17:20.928Z,15.46
2023-07-23T02:18:22.716Z,15.44
2023-07-23T02:19:24.586Z,15.40
2023-07-23T02:20:26.252Z,15.42
2023-07-23T02:21:28.214Z,15.32
2023-07-23T02:22:29.926Z,15.31
2023-07-23T02:23:31.470Z,15.32
2023-07-23T02:24:33.084Z,15.23
2023-07-23T02:25:38.465Z,15.18
2023-07-23T02:26:40.055Z,15.27
2023-07-23T02:27:41.698Z,15.12
2023-07-23T02:28:44.993Z,15.39
2023-07-23T02:29:46.820Z,15.31
2023-07-23T02:30:56.472Z,15.51
2023-07-23T02:31:58.133Z,15.30
2023-07-23T02:32:59.767Z,15.35
2023-07-23T02:34:01.414Z,15.34
2023-07-23T02:35:03.370Z,15.14
2023-07-23T02:36:05.252Z,15.22
2023-07-23T02:37:06.852Z,15.32
2023-07-23T02:38:08.459Z,15.08
2023-07-23T02:39:10.049Z,15.05
2023-07-23T02:40:12.323Z,15.02
2023-07-23T02:41:13.982Z,15.05
2023-07-23T02:42:15.558Z,14.80
2023-07-23T02:43:17.109Z,14.96
2023-07-23T02:44:18.709Z,15.06
2023-07-23T02:45:20.358Z,15.12
2023-07-23T02:46:22.028Z,15.21
2023-07-23T02:47:23.658Z,15.11
2023-07-23T02:48:25.276Z,15.02
2023-07-23T02:49:26.890Z,15.00
2023-07-23T02:50:28.624Z,15.08
2023-07-23T02:51:30.496Z,14.94
2023-07-23T02:52:32.364Z,14.84
2023-07-23T02:53:34.035Z,14.82
2023-07-23T02:54:35.629Z,14.83
2023-07-23T02:55:37.434Z,15.00
2023-07-23T02:56:39.047Z,15.00
2023-07-23T02:57:40.671Z,15.23
2023-07-23T02:58:42.428Z,15.08
2023-07-23T02:59:44.059Z,14.93
2023-07-23T03:00:45.950Z,15.13
2023-07-23T03:01:47.744Z,15.02
2023-07-23T03:02:50.150Z,15.10
2023-07-23T03:03:52.097Z,15.06
2023-07-23T03:04:53.735Z,15.17
2023-07-23T03:05:55.337Z,14.94
2023-07-23T03:06:57.091Z,15.28
2023-07-23T03:07:58.812Z,15.10
2023-07-23T03:09:00.465Z,15.09
2023-07-23T03:10:02.186Z,14.97
2023-07-23T03:11:06.420Z,14.74
2023-07-23T03:12:11.085Z,14.90
2023-07-23T03:13:13.018Z,14.95
2023-07-23T03:14:14.649Z,14.78
2023-07-23T03:15:16.251Z,14.84
2023-07-23T03:16:18.753Z,14.75
2023-07-23T03:17:20.351Z,14.83
2023-07-23T03:18:21.947Z,14.83
2023-07-23T03:19:23.546Z,14.73
2023-07-23T03:20:25.137Z,14.78
2023-07-23T03:21:26.960Z,14.82
2023-07-23T03:22:28.789Z,14.72
2023-07-23T03:23:30.406Z,14.66
2023-07-23T03:24:32.096Z,14.55
2023-07-23T03:25:33.769Z,14.63
2023-07-23T03:26:35.358Z,14.62
2023-07-23T03:27:38.124Z,14.64
2023-07-23T03:28:40.789Z,14.65
2023-07-23T03:29:42.369Z,14.61
2023-07-23T03:30:44.101Z,14.62
2023-07-23T03:31:45.710Z,14.77
2023-07-23T03:32:47.358Z,14.54
2023-07-23T03:33:48.975Z,14.77
2023-07-23T03:34:50.594Z,14.77
2023-07-23T03:35:52.245Z,14.73
2023-07-23T03:36:53.831Z,14.62
2023-07-23T03:37:55.703Z,14.61
2023-07-23T03:38:57.317Z,14.54
2023-07-23T03:39:58.952Z,14.50
2023-07-23T03:41:00.554Z,14.59
2023-07-23T03:42:02.175Z,14.67
2023-07-23T03:43:04.512Z,14.58
2023-07-23T03:44:06.073Z,14.82
2023-07-23T03:45:08.123Z,14.63
2023-07-23T03:46:09.795Z,14.55
2023-07-23T03:47:14.463Z,14.48
2023-07-23T03:48:16.050Z,14.68
2023-07-23T03:49:17.833Z,14.52
2023-07-23T03:50:20.099Z,14.48
2023-07-23T03:51:22.312Z,14.68
2023-07-23T03:52:24.096Z,14.58
2023-07-23T03:53:25.700Z,14.59
2023-07-23T03:54:27.328Z,14.52
2023-07-23T03:55:28.945Z,14.53
2023-07-23T03:56:30.785Z,14.98
2023-07-23T03:57:33.611Z,14.94
2023-07-23T03:58:37.895Z,14.85
2023-07-23T03:59:41.175Z,14.74
2023-07-23T04:00:43.021Z,14.82
2023-07-23T04:01:44.696Z,15.22
2023-07-23T04:02:46.613Z,15.28
2023-07-23T04:03:48.257Z,15.32
2023-07-23T04:04:49.856Z,15.34
2023-07-23T04:05:51.482Z,15.52
2023-07-23T04:06:53.084Z,15.66
2023-07-23T04:07:54.685Z,15.64
2023-07-23T04:08:56.351Z,15.58
2023-07-23T04:09:58.075Z,15.51
2023-07-23T04:10:59.660Z,15.43
2023-07-23T04:12:01.716Z,15.54
2023-07-23T04:13:04.587Z,15.80
2023-07-23T04:14:08.106Z,15.55
2023-07-23T04:15:09.975Z,15.37
2023-07-23T04:16:12.191Z,15.88
2023-07-23T04:17:17.740Z,15.91
2023-07-23T04:18:19.845Z,16.05
2023-07-23T04:19:21.666Z,16.09
2023-07-23T04:20:23.572Z,15.80
2023-07-23T04:21:27.001Z,15.55
2023-07-23T04:22:28.800Z,15.73
2023-07-23T04:23:30.379Z,15.66
2023-07-23T04:24:32.065Z,15.82
2023-07-23T04:25:33.680Z,15.60
2023-07-23T04:26:35.444Z,15.78
2023-07-23T04:27:37.049Z,15.59
2023-07-23T04:28:38.646Z,15.73
2023-07-23T04:29:40.234Z,15.45
2023-07-23T04:30:41.850Z,15.63
2023-07-23T04:31:43.554Z,15.74
2023-07-23T04:32:45.260Z,15.65
2023-07-23T04:33:47.092Z,15.76
2023-07-23T04:34:49.262Z,15.74
2023-07-23T04:35:51.232Z,15.47
2023-07-23T04:36:53.537Z,15.50
2023-07-23T04:37:55.196Z,15.93
2023-07-23T04:38:56.824Z,15.92
2023-07-23T04:39:58.525Z,15.93
2023-07-23T04:41:00.165Z,15.78
2023-07-23T04:42:01.757Z,15.67
2023-07-23T04:43:04.430Z,15.91
2023-07-23T04:44:06.106Z,15.89
2023-07-23T04:45:08.195Z,15.82
2023-07-23T04:46:10.350Z,15.96
2023-07-23T04:47:12.038Z,16.02
2023-07-23T04:48:15.178Z,16.26
2023-07-23T04:49:16.903Z,16.98
2023-07-23T04:50:18.570Z,17.73
2023-07-23T04:51:20.189Z,18.35
2023-07-23T04:52:21.808Z,18.95
2023-07-23T04:53:24.818Z,19.26
2023-07-23T04:54:26.414Z,19.38
2023-07-23T04:55:28.066Z,19.89
2023-07-23T04:56:29.624Z,19.70
2023-07-23T04:57:31.285Z,20.20
2023-07-23T04:58:33.706Z,20.26
2023-07-23T04:59:35.281Z,20.38
2023-07-23T05:00:36.885Z,20.79
2023-07-23T05:01:38.627Z,20.60
2023-07-23T05:02:40.354Z,20.37
2023-07-23T05:03:42.026Z,20.70
2023-07-23T05:04:43.651Z,20.81
2023-07-23T05:05:50.660Z,20.98
2023-07-23T05:06:52.279Z,21.17
2023-07-23T05:07:53.891Z,21.46
2023-07-23T05:08:55.468Z,21.85
2023-07-23T05:09:57.077Z,21.62
2023-07-23T05:11:03.651Z,22.10
2023-07-23T05:12:05.687Z,22.34
2023-07-23T05:13:07.492Z,22.48
2023-07-23T05:14:09.103Z,21.97
2023-07-23T05:15:14.424Z,21.86
2023-07-23T05:16:16.136Z,21.92
2023-07-23T05:17:17.824Z,22.55
2023-07-23T05:18:20.053Z,22.79
2023-07-23T05:19:21.591Z,22.28
2023-07-23T05:20:23.231Z,22.64
2023-07-23T05:21:24.845Z,22.97
2023-07-23T05:22:26.503Z,23.47
2023-07-23T05:23:28.083Z,23.53
2023-07-23T05:24:29.635Z,22.91
2023-07-23T05:25:31.326Z,22.95
2023-07-23T05:26:32.929Z,23.28
2023-07-23T05:27:34.923Z,23.01
2023-07-23T05:28:36.543Z,23.49
2023-07-23T05:29:38.142Z,23.14
2023-07-23T05:30:40.286Z,23.97
2023-07-23T05:31:41.977Z,23.95
2023-07-23T05:32:44.592Z,24.32
2023-07-23T05:33:46.332Z,24.89
2023-07-23T05:34:47.950Z,25.06
2023-07-23T05:35:49.533Z,25.56
2023-07-23T05:36:51.150Z,25.12
2023-07-23T05:37:52.783Z,25.16
2023-07-23T05:38:54.393Z,25.39
2023-07-23T05:39:56.163Z,25.82
2023-07-23T05:40:58.769Z,25.71
2023-07-23T05:42:00.339Z,25.28
2023-07-23T05:43:01.936Z,25.18
2023-07-23T05:44:03.580Z,25.99
2023-07-23T05:45:05.788Z,26.32
2023-07-23T05:46:07.456Z,26.92
2023-07-23T05:47:09.069Z,26.04
2023-07-23T05:48:10.723Z,26.66
2023-07-23T05:49:12.362Z,27.11
2023-07-23T05:50:13.957Z,27.36
2023-07-23T05:51:15.556Z,26.86
2023-07-23T05:52:17.152Z,26.51
2023-07-23T05:53:18.880Z,25.85
2023-07-23T05:54:20.462Z,26.09
2023-07-23T05:55:22.073Z,26.68
2023-07-23T05:56:23.712Z,27.28
2023-07-23T05:57:25.286Z,27.04
2023-07-23T05:58:28.451Z,26.99
2023-07-23T05:59:30.301Z,27.13
2023-07-23T06:00:31.913Z,27.58
2023-07-23T06:01:33.855Z,27.19
2023-07-23T06:02:35.697Z,26.50
2023-07-23T06:03:52.036Z,27.13
2023-07-23T06:04:55.258Z,27.53
2023-07-23T06:05:56.870Z,26.96
2023-07-23T06:06:58.416Z,27.68
2023-07-23T06:08:00.081Z,27.94
2023-07-23T06:09:01.712Z,28.19
2023-07-23T06:10:04.231Z,28.45
2023-07-23T06:11:05.836Z,28.56
2023-07-23T06:12:07.629Z,28.76
2023-07-23T06:13:10.450Z,28.38
2023-07-23T06:14:12.044Z,27.85
2023-07-23T06:15:13.730Z,27.66
2023-07-23T06:16:15.430Z,27.71
2023-07-23T06:17:17.179Z,28.27
2023-07-23T06:18:18.797Z,29.36
2023-07-23T06:19:20.550Z,29.14
2023-07-23T06:20:22.187Z,29.44
2023-07-23T06:21:23.857Z,28.99
2023-07-23T06:22:25.556Z,29.09
2023-07-23T06:23:27.144Z,29.52
2023-07-23T06:24:28.844Z,29.30
2023-07-23T06:25:30.508Z,29.45
2023-07-23T06:26:32.082Z,29.26
2023-07-23T06:27:33.740Z,29.60
2023-07-23T06:28:35.344Z,30.46
2023-07-23T06:29:36.914Z,30.80
2023-07-23T06:30:38.533Z,30.75
2023-07-23T06:31:40.157Z,30.63
2023-07-23T06:32:42.509Z,29.82
2023-07-23T06:33:44.188Z,29.87
2023-07-23T06:34:45.834Z,29.81
2023-07-23T06:35:48.064Z,29.54
2023-07-23T06:36:49.672Z,29.72
2023-07-23T06:37:51.358Z,30.24
2023-07-23T06:38:53.022Z,30.99
2023-07-23T06:39:54.732Z,30.21
2023-07-23T06:40:57.446Z,29.86
2023-07-23T06:41:59.054Z,29.43
2023-07-23T06:43:00.616Z,29.49
2023-07-23T06:44:02.286Z,29.06
2023-07-23T06:45:04.332Z,30.40
2023-07-23T06:46:05.954Z,30.26
2023-07-23T06:47:07.934Z,30.64
2023-07-23T06:48:09.570Z,30.66
2023-07-23T06:49:13.290Z,31.28
2023-07-23T06:50:19.362Z,31.32
2023-07-23T06:51:20.986Z,31.17
2023-07-23T06:52:22.750Z,31.59
2023-07-23T06:53:24.399Z,31.89
2023-07-23T06:54:26.067Z,32.56
2023-07-23T06:55:27.768Z,32.78
2023-07-23T06:56:29.397Z,33.04
2023-07-23T06:57:31.058Z,32.14
2023-07-23T06:58:37.358Z,32.56
2023-07-23T06:59:38.961Z,33.20
2023-07-23T07:00:40.573Z,32.78
2023-07-23T07:01:42.286Z,32.32
2023-07-23T07:02:44.006Z,32.85
2023-07-23T07:03:45.722Z,33.22
2023-07-23T07:04:47.470Z,33.22
2023-07-23T07:05:49.092Z,33.00
2023-07-23T07:06:50.680Z,33.67
2023-07-23T07:07:52.255Z,32.69
2023-07-23T07:08:53.851Z,33.07
2023-07-23T07:09:55.482Z,33.72
2023-07-23T07:11:02.113Z,34.23
2023-07-23T07:12:03.949Z,34.26
2023-07-23T07:13:05.512Z,33.77
2023-07-23T07:14:07.149Z,32.79
2023-07-23T07:15:09.081Z,33.46
2023-07-23T07:16:11.537Z,32.08
2023-07-23T07:17:13.203Z,32.47
2023-07-23T07:18:14.881Z,33.18
2023-07-23T07:19:18.000Z,32.63
2023-07-23T07:20:19.604Z,32.84
2023-07-23T07:21:21.237Z,33.14
2023-07-23T07:22:22.820Z,33.68
2023-07-23T07:23:25.733Z,34.11
2023-07-23T07:24:27.400Z,34.26
2023-07-23T07:25:29.069Z,33.78
2023-07-23T07:26:30.653Z,32.48
2023-07-23T07:27:32.232Z,33.28
2023-07-23T07:28:34.452Z,34.22
2023-07-23T07:29:39.690Z,34.49
2023-07-23T07:30:41.523Z,34.90
2023-07-23T07:31:43.166Z,35.20
2023-07-23T07:32:44.825Z,33.97
2023-07-23T07:33:46.430Z,33.14
2023-07-23T07:34:48.033Z,33.98
2023-07-23T07:35:50.817Z,32.78
2023-07-23T07:36:53.328Z,33.30
2023-07-23T07:37:54.873Z,33.83
2023-07-23T07:38:56.428Z,34.06
2023-07-23T07:39:58.096Z,34.41
2023-07-23T07:40:59.841Z,34.81
2023-07-23T07:42:01.456Z,35.46
2023-07-23T07:43:03.051Z,35.89
2023-07-23T07:44:04.711Z,35.99
2023-07-23T07:45:06.992Z,35.30
2023-07-23T07:46:09.593Z,33.81
2023-07-23T07:47:11.533Z,34.29
2023-07-23T07:48:13.125Z,34.84
2023-07-23T07:49:15.486Z,34.96
2023-07-23T07:50:17.095Z,34.97
2023-07-23T07:51:18.730Z,35.42
2023-07-23T07:52:20.335Z,35.22
2023-07-23T07:53:21.899Z,36.26
2023-07-23T07:54:23.515Z,36.50
2023-07-23T07:55:25.102Z,35.42
2023-07-23T07:56:26.984Z,36.26
2023-07-23T07:57:28.900Z,35.85
2023-07-23T07:58:31.425Z,36.14
2023-07-23T07:59:33.289Z,34.80
2023-07-23T08:00:35.214Z,35.59
2023-07-23T08:01:37.018Z,36.17
2023-07-23T08:02:39.371Z,34.77
2023-07-23T08:03:41.491Z,35.21
2023-07-23T08:04:43.346Z,36.17
2023-07-23T08:05:45.324Z,36.95
2023-07-23T08:06:47.145Z,35.92
2023-07-23T08:07:49.013Z,35.93
2023-07-23T08:08:51.793Z,35.85
2023-07-23T08:09:59.013Z,35.86
2023-07-23T08:11:02.232Z,36.03
2023-07-23T08:12:06.630Z,36.89
2023-07-23T08:13:10.621Z,37.33
2023-07-23T08:14:13.820Z,36.92
2023-07-23T08:15:17.116Z,36.73
2023-07-23T08:16:19.018Z,37.12
2023-07-23T08:17:21.543Z,37.07
2023-07-23T08:18:24.614Z,36.95
2023-07-23T08:19:26.454Z,35.55
2023-07-23T08:20:28.880Z,35.81
2023-07-23T08:21:31.097Z,36.16
2023-07-23T08:22:32.944Z,36.68
2023-07-23T08:23:36.988Z,37.39
2023-07-23T08:24:38.753Z,38.30
2023-07-23T08:25:41.233Z,37.81
2023-07-23T08:26:43.873Z,37.88
2023-07-23T08:27:46.816Z,35.49
2023-07-23T08:28:52.880Z,36.47
2023-07-23T08:29:54.624Z,35.84
2023-07-23T08:30:57.659Z,34.96
2023-07-23T08:31:59.876Z,35.78
2023-07-23T08:33:02.369Z,35.46
2023-07-23T08:34:04.474Z,36.94
2023-07-23T08:35:06.899Z,37.33
2023-07-23T08:36:09.136Z,37.25
2023-07-23T08:37:11.943Z,35.65
2023-07-23T08:38:13.819Z,36.16
2023-07-23T08:39:15.697Z,36.78
2023-07-23T08:40:20.110Z,36.40
2023-07-23T08:41:25.452Z,36.60
2023-07-23T08:42:56.209Z,36.78
2023-07-23T08:44:29.870Z,36.54
2023-07-23T08:45:31.598Z,36.97
2023-07-23T08:46:33.385Z,37.27
2023-07-23T08:47:38.983Z,34.51
2023-07-23T08:48:55.701Z,34.72
2023-07-23T08:50:01.381Z,35.31
2023-07-23T08:51:04.785Z,35.29
2023-07-23T08:52:07.115Z,36.16
2023-07-23T08:53:10.615Z,35.90
2023-07-23T08:54:13.599Z,36.55
2023-07-23T08:55:18.787Z,36.42
2023-07-23T08:56:20.485Z,35.59
2023-07-23T08:57:22.133Z,36.15
2023-07-23T08:58:23.706Z,36.96
2023-07-23T08:59:27.581Z,37.18
2023-07-23T09:00:29.813Z,37.81
2023-07-23T09:01:36.728Z,36.35
2023-07-23T09:02:40.245Z,36.90
2023-07-23T09:03:41.928Z,37.14
2023-07-23T09:04:43.578Z,36.71
2023-07-23T09:05:45.203Z,37.02
2023-07-23T09:06:47.546Z,37.02
2023-07-23T09:07:49.362Z,36.49
2023-07-23T09:08:52.877Z,35.71
2023-07-23T09:09:54.468Z,35.08
2023-07-23T09:10:56.085Z,35.94
2023-07-23T09:11:57.719Z,36.23
2023-07-23T09:12:59.315Z,37.25
2023-07-23T09:14:08.032Z,37.49
2023-07-23T09:15:10.514Z,38.15
2023-07-23T09:16:12.101Z,38.27
2023-07-23T09:17:18.451Z,38.10
2023-07-23T09:18:20.937Z,38.52
2023-07-23T09:19:24.519Z,37.93
2023-07-23T09:20:26.107Z,38.44
2023-07-23T09:21:28.743Z,39.31
2023-07-23T09:22:33.695Z,38.76
2023-07-23T09:23:35.338Z,37.71
2023-07-23T09:24:37.025Z,37.12
2023-07-23T09:25:40.139Z,37.20
2023-07-23T09:26:42.386Z,36.96
2023-07-23T09:27:44.253Z,36.72
2023-07-23T09:28:45.957Z,36.29
2023-07-23T09:29:48.704Z,36.41
2023-07-23T09:30:57.986Z,37.80
2023-07-23T09:31:59.614Z,37.68
2023-07-23T09:33:03.382Z,37.15
2023-07-23T09:34:05.375Z,37.84
2023-07-23T09:35:07.388Z,36.90
2023-07-23T09:36:09.039Z,37.06
2023-07-23T09:37:11.616Z,36.74
2023-07-23T09:38:15.866Z,37.18
2023-07-23T09:39:19.428Z,36.06
2023-07-23T09:40:21.001Z,36.28
2023-07-23T09:41:22.650Z,35.17
2023-07-23T09:42:24.630Z,36.48
2023-07-23T09:43:26.873Z,36.64
2023-07-23T09:44:28.518Z,36.61
2023-07-23T09:45:31.678Z,36.61
2023-07-23T09:46:34.011Z,37.51
2023-07-23T09:47:36.934Z,36.03
2023-07-23T09:48:50.796Z,35.95
2023-07-23T09:49:55.441Z,35.86
2023-07-23T09:51:01.574Z,37.08
2023-07-23T09:52:07.894Z,36.44
2023-07-23T09:53:10.126Z,35.95
2023-07-23T09:54:11.759Z,36.93
2023-07-23T09:55:13.725Z,36.82
2023-07-23T09:56:16.670Z,37.58
2023-07-23T09:57:20.574Z,37.28
2023-07-23T09:58:22.748Z,37.69
2023-07-23T09:59:25.221Z,37.80
2023-07-23T10:00:26.892Z,37.45
2023-07-23T10:01:29.852Z,37.28
2023-07-23T10:02:34.947Z,36.25
2023-07-23T10:03:37.025Z,35.93
2023-07-23T10:04:38.729Z,35.28
2023-07-23T10:05:40.539Z,36.16
2023-07-23T10:06:42.223Z,36.69
2023-07-23T10:07:45.785Z,36.71
2023-07-23T10:08:48.342Z,35.95
2023-07-23T10:09:51.306Z,35.17
2023-07-23T10:10:52.942Z,35.44
2023-07-23T10:11:54.600Z,35.73
2023-07-23T10:12:56.210Z,36.07
2023-07-23T10:13:59.582Z,36.69
2023-07-23T10:15:03.966Z,35.97
2023-07-23T10:16:10.083Z,36.62
2023-07-23T10:17:11.886Z,36.05
2023-07-23T10:18:13.951Z,36.14
2023-07-23T10:19:15.864Z,36.06
2023-07-23T10:20:19.130Z,35.95
2023-07-23T10:21:20.977Z,35.60
2023-07-23T10:22:23.601Z,35.79
2023-07-23T10:23:25.364Z,35.96
2023-07-23T10:24:40.571Z,34.82
2023-07-23T10:25:42.344Z,35.19
2023-07-23T10:26:47.633Z,35.69
2023-07-23T10:27:57.674Z,35.43
2023-07-23T10:29:08.547Z,35.05
2023-07-23T10:30:21.117Z,35.11
2023-07-23T10:31:28.207Z,35.47
2023-07-23T10:32:30.219Z,34.90
2023-07-23T10:33:32.057Z,34.71
2023-07-23T10:34:34.588Z,34.99
2023-07-23T10:36:08.145Z,35.25
2023-07-23T10:37:22.523Z,35.42
2023-07-23T10:38:30.079Z,35.75
2023-07-23T10:39:40.117Z,35.78
2023-07-23T10:40:45.350Z,35.84
2023-07-23T10:41:49.261Z,36.04
2023-07-23T10:42:50.842Z,36.06
2023-07-23T10:43:53.623Z,36.46
2023-07-23T10:45:20.072Z,36.59
2023-07-23T10:46:21.839Z,35.09
2023-07-23T10:47:31.722Z,34.52
2023-07-23T10:48:50.417Z,33.52
2023-07-23T10:50:14.267Z,33.23
2023-07-23T10:51:23.473Z,33.80
2023-07-23T10:52:25.130Z,33.84
2023-07-23T10:53:27.775Z,34.45
2023-07-23T10:54:29.444Z,34.47
2023-07-23T10:55:35.190Z,34.22
2023-07-23T10:56:37.724Z,34.67
2023-07-23T10:57:42.289Z,34.44
2023-07-23T10:58:44.005Z,35.55
2023-07-23T10:59:53.408Z,35.38
2023-07-23T11:00:57.094Z,36.02
2023-07-23T11:01:58.834Z,35.35
2023-07-23T11:03:00.734Z,35.62
2023-07-23T11:04:11.235Z,35.89
2023-07-23T11:05:12.842Z,35.12
2023-07-23T11:06:33.602Z,34.74
2023-07-23T11:07:35.216Z,34.92
2023-07-23T11:08:48.961Z,34.84
2023-07-23T11:09:50.589Z,34.65
2023-07-23T11:11:01.078Z,33.85
2023-07-23T11:12:06.600Z,33.26
2023-07-23T11:13:09.675Z,33.53
2023-07-23T11:14:27.923Z,33.97
2023-07-23T11:15:29.851Z,34.73
2023-07-23T11:16:36.006Z,34.89
2023-07-23T11:17:37.860Z,34.88
2023-07-23T11:18:40.410Z,34.72
2023-07-23T11:19:47.106Z,34.40
2023-07-23T11:20:50.809Z,34.47
2023-07-23T11:21:59.829Z,34.16
2023-07-23T11:23:01.751Z,34.38
2023-07-23T11:24:03.406Z,34.34
2023-07-23T11:25:05.454Z,34.70
2023-07-23T11:26:06.945Z,33.99
2023-07-23T11:27:11.226Z,33.93
2023-07-23T11:28:12.928Z,33.78
2023-07-23T11:29:15.006Z,33.05
2023-07-23T11:30:16.848Z,32.30
2023-07-23T11:31:18.599Z,31.25
2023-07-23T11:32:20.283Z,31.12
2023-07-23T11:33:23.295Z,31.38
2023-07-23T11:34:25.494Z,31.39
2023-07-23T11:35:27.071Z,31.19
2023-07-23T11:36:29.657Z,31.61
2023-07-23T11:37:31.630Z,31.76
2023-07-23T11:38:33.898Z,31.70
2023-07-23T11:39:35.607Z,31.95
2023-07-23T11:40:37.559Z,31.43
2023-07-23T11:41:42.934Z,31.17
2023-07-23T11:42:44.799Z,31.15
2023-07-23T11:43:46.548Z,31.01
2023-07-23T11:45:02.085Z,30.80
2023-07-23T11:46:03.870Z,30.75
2023-07-23T11:47:06.108Z,30.72
2023-07-23T11:48:07.700Z,30.97
2023-07-23T11:49:11.475Z,31.14
2023-07-23T11:50:13.186Z,31.00
2023-07-23T11:51:14.867Z,31.05
2023-07-23T11:52:25.469Z,31.41
2023-07-23T11:53:34.606Z,30.97
2023-07-23T11:54:36.267Z,31.26
2023-07-23T11:55:37.994Z,31.54
2023-07-23T11:56:41.694Z,31.47
2023-07-23T11:57:43.312Z,31.25
2023-07-23T11:58:45.018Z,31.45
2023-07-23T11:59:46.639Z,31.52
2023-07-23T12:00:50.527Z,31.44
2023-07-23T12:01:56.223Z,31.40
2023-07-23T12:02:58.980Z,31.17
2023-07-23T12:04:02.001Z,30.68
2023-07-23T12:05:04.157Z,30.68
2023-07-23T12:06:06.231Z,30.35
2023-07-23T12:07:08.013Z,30.59
2023-07-23T12:08:09.797Z,30.96
2023-07-23T12:09:12.860Z,31.01
2023-07-23T12:10:15.905Z,31.50
2023-07-23T12:11:17.639Z,31.07
2023-07-23T12:12:23.023Z,30.74
2023-07-23T12:13:26.993Z,30.80
2023-07-23T12:14:28.650Z,30.81
2023-07-23T12:15:30.268Z,30.74
2023-07-23T12:16:43.488Z,30.53
2023-07-23T12:17:46.022Z,30.90
2023-07-23T12:18:49.889Z,31.22
2023-07-23T12:19:52.028Z,30.60
2023-07-23T12:21:00.820Z,30.54
2023-07-23T12:22:02.430Z,30.39
2023-07-23T12:23:04.053Z,30.22
2023-07-23T12:24:27.948Z,30.35
2023-07-23T12:25:29.735Z,30.24
2023-07-23T12:26:31.395Z,30.01
2023-07-23T12:27:33.075Z,29.91
2023-07-23T12:28:34.693Z,29.94
2023-07-23T12:29:41.990Z,29.67
2023-07-23T12:30:43.612Z,29.54
2023-07-23T12:31:47.341Z,29.90
2023-07-23T12:32:49.205Z,30.12
2023-07-23T12:33:50.925Z,30.12
2023-07-23T12:34:52.596Z,30.25
2023-07-23T12:35:54.291Z,30.21
2023-07-23T12:36:55.912Z,30.34
2023-07-23T12:37:57.616Z,30.33
2023-07-23T12:38:59.252Z,30.17
2023-07-23T12:40:01.281Z,30.36
2023-07-23T12:41:04.012Z,30.26
2023-07-23T12:42:05.920Z,30.10
2023-07-23T12:43:07.716Z,30.10
2023-07-23T12:44:10.683Z,30.13
2023-07-23T12:45:12.487Z,29.98
2023-07-23T12:46:15.508Z,29.96
2023-07-23T12:47:17.190Z,29.69
2023-07-23T12:48:18.840Z,29.33
2023-07-23T12:49:20.415Z,29.09
2023-07-23T12:50:22.005Z,28.97
2023-07-23T12:51:24.151Z,29.37
2023-07-23T12:52:26.230Z,29.58
2023-07-23T12:53:27.848Z,29.44
2023-07-23T12:54:29.482Z,29.04
2023-07-23T12:55:31.145Z,28.70
2023-07-23T12:56:32.902Z,28.65
2023-07-23T12:57:34.500Z,28.62
2023-07-23T12:58:36.097Z,28.26
2023-07-23T12:59:37.681Z,28.47
2023-07-23T13:00:39.363Z,28.08
2023-07-23T13:01:42.396Z,28.34
2023-07-23T13:02:44.275Z,28.53
2023-07-23T13:03:45.988Z,28.81
2023-07-23T13:04:48.551Z,29.02
2023-07-23T13:05:50.160Z,28.72
2023-07-23T13:06:51.787Z,28.55
2023-07-23T13:07:53.454Z,28.50
2023-07-23T13:08:55.047Z,28.25
2023-07-23T13:09:56.598Z,28.27
2023-07-23T13:10:58.155Z,28.26
2023-07-23T13:11:59.745Z,28.48
2023-07-23T13:13:01.358Z,28.75
2023-07-23T13:14:02.972Z,28.80
2023-07-23T13:15:06.648Z,29.00
2023-07-23T13:16:09.902Z,29.01
2023-07-23T13:17:11.633Z,28.90
2023-07-23T13:18:13.265Z,28.98
2023-07-23T13:19:14.908Z,28.86
2023-07-23T13:20:16.571Z,28.69
2023-07-23T13:21:18.251Z,28.94
2023-07-23T13:22:19.879Z,29.03
2023-07-23T13:23:21.591Z,28.91
2023-07-23T13:24:23.228Z,29.01
2023-07-23T13:25:24.902Z,28.90
2023-07-23T13:26:26.634Z,28.96
2023-07-23T13:27:28.392Z,28.78
2023-07-23T13:28:30.049Z,28.73